sensor_id;sensor_type;location;lat;lon;timestamp;P1;durP1;ratioP1;P2;durP2;ratioP2
3597;SDS011;1813;52.016;8.714;2023-02-12T00:00:54;70.03;;;37.53;;
3597;SDS011;1813;52.016;8.714;2023-02-12T00:03:28;76.03;;;38.73;;
3597;SDS011;1813;52.016;8.714;2023-02-12T00:06:04;74.60;;;40.87;;
3597;SDS011;1813;52.016;8.714;2023-02-12T00:08:41;68.87;;;38.17;;
3597;SDS011;1813;52.016;8.714;2023-02-12T00:11:17;70.07;;;37.03;;
3597;SDS011;1813;52.016;8.714;2023-02-12T00:13:55;65.13;;;38.60;;
3597;SDS011;1813;52.016;8.714;2023-02-12T00:16:29;68.77;;;38.30;;
3597;SDS011;1813;52.016;8.714;2023-02-12T00:19:03;74.00;;;38.97;;
3597;SDS011;1813;52.016;8.714;2023-02-12T00:21:37;65.50;;;38.37;;
3597;SDS011;1813;52.016;8.714;2023-02-12T00:24:14;68.03;;;38.80;;
3597;SDS011;1813;52.016;8.714;2023-02-12T00:26:47;67.50;;;38.43;;
3597;SDS011;1813;52.016;8.714;2023-02-12T00:29:21;67.40;;;38.30;;
3597;SDS011;1813;52.016;8.714;2023-02-12T00:31:55;69.57;;;38.27;;
3597;SDS011;1813;52.016;8.714;2023-02-12T00:34:30;68.20;;;36.40;;
3597;SDS011;1813;52.016;8.714;2023-02-12T00:37:04;65.50;;;37.63;;
3597;SDS011;1813;52.016;8.714;2023-02-12T00:39:40;71.20;;;37.30;;
3597;SDS011;1813;52.016;8.714;2023-02-12T00:42:14;70.67;;;38.07;;
3597;SDS011;1813;52.016;8.714;2023-02-12T00:44:49;66.53;;;36.80;;
3597;SDS011;1813;52.016;8.714;2023-02-12T00:47:24;67.03;;;37.60;;
3597;SDS011;1813;52.016;8.714;2023-02-12T00:49:58;67.27;;;37.47;;
3597;SDS011;1813;52.016;8.714;2023-02-12T00:52:32;69.00;;;36.93;;
3597;SDS011;1813;52.016;8.714;2023-02-12T00:55:09;67.27;;;35.60;;
3597;SDS011;1813;52.016;8.714;2023-02-12T00:57:42;71.83;;;38.20;;
3597;SDS011;1813;52.016;8.714;2023-02-12T01:00:18;71.83;;;38.00;;
3597;SDS011;1813;52.016;8.714;2023-02-12T01:02:55;71.77;;;37.33;;
3597;SDS011;1813;52.016;8.714;2023-02-12T01:05:28;73.10;;;37.23;;
3597;SDS011;1813;52.016;8.714;2023-02-12T01:08:03;76.20;;;39.60;;
3597;SDS011;1813;52.016;8.714;2023-02-12T01:10:40;69.10;;;37.60;;
3597;SDS011;1813;52.016;8.714;2023-02-12T01:13:14;81.30;;;37.80;;
3597;SDS011;1813;52.016;8.714;2023-02-12T01:15:48;73.17;;;39.27;;
3597;SDS011;1813;52.016;8.714;2023-02-12T01:18:22;72.00;;;39.00;;
3597;SDS011;1813;52.016;8.714;2023-02-12T01:20:56;69.43;;;37.70;;
3597;SDS011;1813;52.016;8.714;2023-02-12T01:23:30;72.47;;;39.03;;
3597;SDS011;1813;52.016;8.714;2023-02-12T01:26:08;70.50;;;38.07;;
3597;SDS011;1813;52.016;8.714;2023-02-12T01:28:43;78.90;;;39.47;;
3597;SDS011;1813;52.016;8.714;2023-02-12T01:31:21;67.10;;;38.47;;
3597;SDS011;1813;52.016;8.714;2023-02-12T01:33:56;93.83;;;41.60;;
3597;SDS011;1813;52.016;8.714;2023-02-12T01:36:31;75.97;;;40.23;;
3597;SDS011;1813;52.016;8.714;2023-02-12T01:39:09;79.67;;;40.90;;
3597;SDS011;1813;52.016;8.714;2023-02-12T01:41:46;79.57;;;40.20;;
3597;SDS011;1813;52.016;8.714;2023-02-12T01:44:21;80.37;;;41.50;;
3597;SDS011;1813;52.016;8.714;2023-02-12T01:47:00;78.30;;;40.90;;
3597;SDS011;1813;52.016;8.714;2023-02-12T01:49:36;73.57;;;39.10;;
3597;SDS011;1813;52.016;8.714;2023-02-12T01:52:13;74.30;;;39.67;;
3597;SDS011;1813;52.016;8.714;2023-02-12T01:54:51;77.20;;;40.27;;
3597;SDS011;1813;52.016;8.714;2023-02-12T01:57:29;80.07;;;40.67;;
3597;SDS011;1813;52.016;8.714;2023-02-12T02:00:07;80.97;;;40.30;;
3597;SDS011;1813;52.016;8.714;2023-02-12T02:02:47;71.80;;;39.37;;
3597;SDS011;1813;52.016;8.714;2023-02-12T02:05:27;81.40;;;40.20;;
3597;SDS011;1813;52.016;8.714;2023-02-12T02:08:07;75.30;;;40.33;;
3597;SDS011;1813;52.016;8.714;2023-02-12T02:10:41;77.93;;;41.60;;
3597;SDS011;1813;52.016;8.714;2023-02-12T02:13:19;77.23;;;42.03;;
3597;SDS011;1813;52.016;8.714;2023-02-12T02:16:07;76.40;;;40.50;;
3597;SDS011;1813;52.016;8.714;2023-02-12T02:18:49;77.07;;;41.70;;
3597;SDS011;1813;52.016;8.714;2023-02-12T02:21:39;79.70;;;41.07;;
3597;SDS011;1813;52.016;8.714;2023-02-12T02:24:36;77.50;;;41.17;;
3597;SDS011;1813;52.016;8.714;2023-02-12T02:27:34;85.23;;;42.50;;
3597;SDS011;1813;52.016;8.714;2023-02-12T02:30:29;81.00;;;42.80;;
3597;SDS011;1813;52.016;8.714;2023-02-12T02:33:15;83.10;;;41.10;;
3597;SDS011;1813;52.016;8.714;2023-02-12T02:36:00;81.17;;;42.03;;
3597;SDS011;1813;52.016;8.714;2023-02-12T02:38:49;87.70;;;43.30;;
3597;SDS011;1813;52.016;8.714;2023-02-12T02:41:27;87.27;;;43.03;;
3597;SDS011;1813;52.016;8.714;2023-02-12T02:44:08;88.40;;;43.90;;
3597;SDS011;1813;52.016;8.714;2023-02-12T02:46:49;81.03;;;43.30;;
3597;SDS011;1813;52.016;8.714;2023-02-12T02:49:26;90.00;;;44.47;;
3597;SDS011;1813;52.016;8.714;2023-02-12T02:52:07;86.90;;;43.10;;
3597;SDS011;1813;52.016;8.714;2023-02-12T02:54:44;82.67;;;42.10;;
3597;SDS011;1813;52.016;8.714;2023-02-12T02:57:22;83.00;;;43.17;;
3597;SDS011;1813;52.016;8.714;2023-02-12T03:00:03;84.90;;;44.80;;
3597;SDS011;1813;52.016;8.714;2023-02-12T03:02:44;82.50;;;43.47;;
3597;SDS011;1813;52.016;8.714;2023-02-12T03:05:23;83.43;;;41.30;;
3597;SDS011;1813;52.016;8.714;2023-02-12T03:08:02;81.57;;;42.10;;
3597;SDS011;1813;52.016;8.714;2023-02-12T03:10:42;86.27;;;43.30;;
3597;SDS011;1813;52.016;8.714;2023-02-12T03:13:20;91.27;;;44.93;;
3597;SDS011;1813;52.016;8.714;2023-02-12T03:15:59;85.90;;;43.73;;
3597;SDS011;1813;52.016;8.714;2023-02-12T03:18:41;92.03;;;44.97;;
3597;SDS011;1813;52.016;8.714;2023-02-12T03:21:23;86.47;;;43.73;;
3597;SDS011;1813;52.016;8.714;2023-02-12T03:24:01;95.43;;;45.70;;
3597;SDS011;1813;52.016;8.714;2023-02-12T03:26:44;100.57;;;46.43;;
3597;SDS011;1813;52.016;8.714;2023-02-12T03:29:20;100.27;;;47.20;;
3597;SDS011;1813;52.016;8.714;2023-02-12T03:31:57;99.27;;;47.80;;
3597;SDS011;1813;52.016;8.714;2023-02-12T03:34:42;105.27;;;50.07;;
3597;SDS011;1813;52.016;8.714;2023-02-12T03:37:24;115.90;;;49.67;;
3597;SDS011;1813;52.016;8.714;2023-02-12T03:40:04;115.97;;;50.47;;
3597;SDS011;1813;52.016;8.714;2023-02-12T03:42:45;120.37;;;50.27;;
3597;SDS011;1813;52.016;8.714;2023-02-12T03:45:26;123.67;;;51.80;;
3597;SDS011;1813;52.016;8.714;2023-02-12T03:48:10;130.00;;;53.03;;
3597;SDS011;1813;52.016;8.714;2023-02-12T03:50:54;128.80;;;51.83;;
3597;SDS011;1813;52.016;8.714;2023-02-12T03:53:31;126.60;;;53.80;;
3597;SDS011;1813;52.016;8.714;2023-02-12T03:56:06;132.57;;;53.87;;
3597;SDS011;1813;52.016;8.714;2023-02-12T03:58:45;131.93;;;54.43;;
3597;SDS011;1813;52.016;8.714;2023-02-12T04:01:19;125.90;;;54.10;;
3597;SDS011;1813;52.016;8.714;2023-02-12T04:03:52;143.83;;;54.00;;
3597;SDS011;1813;52.016;8.714;2023-02-12T04:06:30;132.80;;;52.20;;
3597;SDS011;1813;52.016;8.714;2023-02-12T04:09:06;133.77;;;52.23;;
3597;SDS011;1813;52.016;8.714;2023-02-12T04:11:45;136.17;;;53.23;;
3597;SDS011;1813;52.016;8.714;2023-02-12T04:14:28;159.67;;;55.67;;
3597;SDS011;1813;52.016;8.714;2023-02-12T04:17:08;138.30;;;52.90;;
3597;SDS011;1813;52.016;8.714;2023-02-12T04:19:53;139.20;;;54.57;;
3597;SDS011;1813;52.016;8.714;2023-02-12T04:22:43;136.20;;;54.70;;
3597;SDS011;1813;52.016;8.714;2023-02-12T04:25:28;134.87;;;55.07;;
3597;SDS011;1813;52.016;8.714;2023-02-12T04:28:16;149.67;;;55.67;;
3597;SDS011;1813;52.016;8.714;2023-02-12T04:31:00;137.70;;;53.87;;
3597;SDS011;1813;52.016;8.714;2023-02-12T04:33:39;146.10;;;54.27;;
3597;SDS011;1813;52.016;8.714;2023-02-12T04:36:20;147.13;;;56.10;;
3597;SDS011;1813;52.016;8.714;2023-02-12T04:39:00;142.43;;;54.70;;
3597;SDS011;1813;52.016;8.714;2023-02-12T04:41:40;142.57;;;54.40;;
3597;SDS011;1813;52.016;8.714;2023-02-12T04:44:14;147.43;;;55.40;;
3597;SDS011;1813;52.016;8.714;2023-02-12T04:46:49;161.23;;;56.73;;
3597;SDS011;1813;52.016;8.714;2023-02-12T04:49:24;159.60;;;56.50;;
3597;SDS011;1813;52.016;8.714;2023-02-12T04:51:58;155.90;;;55.57;;
3597;SDS011;1813;52.016;8.714;2023-02-12T04:54:34;147.13;;;55.90;;
3597;SDS011;1813;52.016;8.714;2023-02-12T04:57:09;147.10;;;55.23;;
3597;SDS011;1813;52.016;8.714;2023-02-12T04:59:43;149.97;;;54.87;;
3597;SDS011;1813;52.016;8.714;2023-02-12T05:02:17;150.40;;;55.83;;
3597;SDS011;1813;52.016;8.714;2023-02-12T05:04:50;150.60;;;56.03;;
3597;SDS011;1813;52.016;8.714;2023-02-12T05:07:24;153.60;;;57.53;;
3597;SDS011;1813;52.016;8.714;2023-02-12T05:10:00;154.90;;;58.83;;
3597;SDS011;1813;52.016;8.714;2023-02-12T05:12:35;161.20;;;58.80;;
3597;SDS011;1813;52.016;8.714;2023-02-12T05:15:09;152.43;;;57.13;;
3597;SDS011;1813;52.016;8.714;2023-02-12T05:17:43;164.93;;;57.47;;
3597;SDS011;1813;52.016;8.714;2023-02-12T05:20:17;166.43;;;59.07;;
3597;SDS011;1813;52.016;8.714;2023-02-12T05:22:52;161.17;;;59.57;;
3597;SDS011;1813;52.016;8.714;2023-02-12T05:25:29;160.87;;;58.57;;
3597;SDS011;1813;52.016;8.714;2023-02-12T05:28:03;179.07;;;62.07;;
3597;SDS011;1813;52.016;8.714;2023-02-12T05:30:37;165.20;;;60.00;;
3597;SDS011;1813;52.016;8.714;2023-02-12T05:33:11;171.77;;;60.97;;
3597;SDS011;1813;52.016;8.714;2023-02-12T05:35:44;173.47;;;61.30;;
3597;SDS011;1813;52.016;8.714;2023-02-12T05:38:19;179.17;;;60.20;;
3597;SDS011;1813;52.016;8.714;2023-02-12T05:40:57;192.23;;;61.70;;
3597;SDS011;1813;52.016;8.714;2023-02-12T05:43:34;192.43;;;62.60;;
3597;SDS011;1813;52.016;8.714;2023-02-12T05:46:08;182.83;;;61.53;;
3597;SDS011;1813;52.016;8.714;2023-02-12T05:48:43;171.83;;;60.07;;
3597;SDS011;1813;52.016;8.714;2023-02-12T05:51:17;163.70;;;59.97;;
3597;SDS011;1813;52.016;8.714;2023-02-12T05:53:55;166.80;;;61.03;;
3597;SDS011;1813;52.016;8.714;2023-02-12T05:56:36;175.57;;;62.60;;
3597;SDS011;1813;52.016;8.714;2023-02-12T05:59:14;174.27;;;61.27;;
3597;SDS011;1813;52.016;8.714;2023-02-12T06:01:51;162.60;;;59.57;;
3597;SDS011;1813;52.016;8.714;2023-02-12T06:04:26;162.83;;;57.50;;
3597;SDS011;1813;52.016;8.714;2023-02-12T06:07:01;154.20;;;55.60;;
3597;SDS011;1813;52.016;8.714;2023-02-12T06:09:36;147.43;;;54.30;;
3597;SDS011;1813;52.016;8.714;2023-02-12T06:12:12;142.73;;;53.40;;
3597;SDS011;1813;52.016;8.714;2023-02-12T06:14:46;149.97;;;56.13;;
3597;SDS011;1813;52.016;8.714;2023-02-12T06:17:20;142.70;;;54.07;;
3597;SDS011;1813;52.016;8.714;2023-02-12T06:19:53;133.50;;;52.87;;
3597;SDS011;1813;52.016;8.714;2023-02-12T06:22:27;139.60;;;54.27;;
3597;SDS011;1813;52.016;8.714;2023-02-12T06:25:02;136.20;;;55.20;;
3597;SDS011;1813;52.016;8.714;2023-02-12T06:27:39;121.27;;;53.33;;
3597;SDS011;1813;52.016;8.714;2023-02-12T06:30:13;125.60;;;51.50;;
3597;SDS011;1813;52.016;8.714;2023-02-12T06:32:50;132.60;;;54.43;;
3597;SDS011;1813;52.016;8.714;2023-02-12T06:35:23;122.63;;;53.53;;
3597;SDS011;1813;52.016;8.714;2023-02-12T06:37:57;127.83;;;53.80;;
3597;SDS011;1813;52.016;8.714;2023-02-12T06:40:31;120.20;;;53.50;;
3597;SDS011;1813;52.016;8.714;2023-02-12T06:43:09;120.37;;;54.70;;
3597;SDS011;1813;52.016;8.714;2023-02-12T06:45:43;114.33;;;53.20;;
3597;SDS011;1813;52.016;8.714;2023-02-12T06:48:17;124.93;;;54.50;;
3597;SDS011;1813;52.016;8.714;2023-02-12T06:50:51;121.10;;;53.77;;
3597;SDS011;1813;52.016;8.714;2023-02-12T06:53:24;124.47;;;53.73;;
3597;SDS011;1813;52.016;8.714;2023-02-12T06:55:59;123.57;;;52.93;;
3597;SDS011;1813;52.016;8.714;2023-02-12T06:58:36;136.70;;;57.03;;
3597;SDS011;1813;52.016;8.714;2023-02-12T07:01:10;132.07;;;55.93;;
3597;SDS011;1813;52.016;8.714;2023-02-12T07:03:47;124.57;;;52.13;;
3597;SDS011;1813;52.016;8.714;2023-02-12T07:06:26;134.20;;;55.57;;
3597;SDS011;1813;52.016;8.714;2023-02-12T07:09:13;135.03;;;55.90;;
3597;SDS011;1813;52.016;8.714;2023-02-12T07:12:00;145.90;;;57.93;;
3597;SDS011;1813;52.016;8.714;2023-02-12T07:14:53;152.47;;;60.03;;
3597;SDS011;1813;52.016;8.714;2023-02-12T07:17:38;149.47;;;57.53;;
3597;SDS011;1813;52.016;8.714;2023-02-12T07:20:22;168.93;;;62.80;;
3597;SDS011;1813;52.016;8.714;2023-02-12T07:23:05;164.40;;;61.87;;
3597;SDS011;1813;52.016;8.714;2023-02-12T07:25:56;181.33;;;64.10;;
3597;SDS011;1813;52.016;8.714;2023-02-12T07:28:36;182.13;;;65.70;;
3597;SDS011;1813;52.016;8.714;2023-02-12T07:31:31;182.33;;;65.37;;
3597;SDS011;1813;52.016;8.714;2023-02-12T07:34:15;188.67;;;66.67;;
3597;SDS011;1813;52.016;8.714;2023-02-12T07:37:00;190.60;;;67.37;;
3597;SDS011;1813;52.016;8.714;2023-02-12T07:39:48;178.37;;;64.07;;
3597;SDS011;1813;52.016;8.714;2023-02-12T07:42:37;181.77;;;65.67;;
3597;SDS011;1813;52.016;8.714;2023-02-12T07:45:24;184.20;;;67.07;;
3597;SDS011;1813;52.016;8.714;2023-02-12T07:48:14;174.23;;;63.90;;
3597;SDS011;1813;52.016;8.714;2023-02-12T07:50:52;171.40;;;64.87;;
3597;SDS011;1813;52.016;8.714;2023-02-12T07:53:27;173.17;;;64.57;;
3597;SDS011;1813;52.016;8.714;2023-02-12T07:56:15;178.00;;;64.47;;
3597;SDS011;1813;52.016;8.714;2023-02-12T07:58:56;177.40;;;63.40;;
3597;SDS011;1813;52.016;8.714;2023-02-12T08:01:36;181.07;;;64.87;;
3597;SDS011;1813;52.016;8.714;2023-02-12T08:04:22;186.30;;;64.53;;
3597;SDS011;1813;52.016;8.714;2023-02-12T08:07:03;181.97;;;64.23;;
3597;SDS011;1813;52.016;8.714;2023-02-12T08:09:43;180.40;;;65.93;;
3597;SDS011;1813;52.016;8.714;2023-02-12T08:12:22;196.50;;;67.50;;
3597;SDS011;1813;52.016;8.714;2023-02-12T08:15:09;204.73;;;68.30;;
3597;SDS011;1813;52.016;8.714;2023-02-12T08:17:50;193.83;;;65.80;;
3597;SDS011;1813;52.016;8.714;2023-02-12T08:20:39;204.20;;;70.50;;
3597;SDS011;1813;52.016;8.714;2023-02-12T08:23:17;213.80;;;71.87;;
3597;SDS011;1813;52.016;8.714;2023-02-12T08:25:53;195.20;;;66.57;;
3597;SDS011;1813;52.016;8.714;2023-02-12T08:28:47;211.53;;;69.90;;
3597;SDS011;1813;52.016;8.714;2023-02-12T08:31:37;220.77;;;69.70;;
3597;SDS011;1813;52.016;8.714;2023-02-12T08:34:39;228.03;;;72.10;;
3597;SDS011;1813;52.016;8.714;2023-02-12T08:37:22;188.37;;;66.30;;
3597;SDS011;1813;52.016;8.714;2023-02-12T08:43:15;196.90;;;68.73;;
3597;SDS011;1813;52.016;8.714;2023-02-12T08:46:00;193.03;;;65.83;;
3597;SDS011;1813;52.016;8.714;2023-02-12T08:48:54;204.33;;;68.43;;
3597;SDS011;1813;52.016;8.714;2023-02-12T08:51:33;206.43;;;68.63;;
3597;SDS011;1813;52.016;8.714;2023-02-12T08:54:28;195.57;;;69.87;;
3597;SDS011;1813;52.016;8.714;2023-02-12T08:57:16;192.17;;;66.40;;
3597;SDS011;1813;52.016;8.714;2023-02-12T08:59:50;195.63;;;69.33;;
3597;SDS011;1813;52.016;8.714;2023-02-12T09:05:14;175.33;;;64.07;;
3597;SDS011;1813;52.016;8.714;2023-02-12T09:07:47;176.70;;;63.30;;
3597;SDS011;1813;52.016;8.714;2023-02-12T09:10:25;171.30;;;62.93;;
3597;SDS011;1813;52.016;8.714;2023-02-12T09:12:59;172.80;;;62.30;;
3597;SDS011;1813;52.016;8.714;2023-02-12T09:15:35;163.10;;;61.20;;
3597;SDS011;1813;52.016;8.714;2023-02-12T09:18:11;151.67;;;61.60;;
3597;SDS011;1813;52.016;8.714;2023-02-12T09:20:46;163.83;;;62.27;;
3597;SDS011;1813;52.016;8.714;2023-02-12T09:23:20;154.27;;;60.37;;
3597;SDS011;1813;52.016;8.714;2023-02-12T09:25:58;157.70;;;60.40;;
3597;SDS011;1813;52.016;8.714;2023-02-12T09:28:33;147.37;;;57.13;;
3597;SDS011;1813;52.016;8.714;2023-02-12T09:31:10;150.47;;;59.00;;
3597;SDS011;1813;52.016;8.714;2023-02-12T09:33:45;153.73;;;60.13;;
3597;SDS011;1813;52.016;8.714;2023-02-12T09:36:19;146.17;;;59.73;;
3597;SDS011;1813;52.016;8.714;2023-02-12T09:38:54;142.83;;;58.13;;
3597;SDS011;1813;52.016;8.714;2023-02-12T09:41:44;143.67;;;58.40;;
3597;SDS011;1813;52.016;8.714;2023-02-12T09:44:25;145.10;;;57.20;;
3597;SDS011;1813;52.016;8.714;2023-02-12T09:47:07;142.80;;;56.57;;
3597;SDS011;1813;52.016;8.714;2023-02-12T09:49:48;160.97;;;58.43;;
3597;SDS011;1813;52.016;8.714;2023-02-12T09:52:33;151.50;;;59.60;;
3597;SDS011;1813;52.016;8.714;2023-02-12T09:55:09;156.53;;;59.30;;
3597;SDS011;1813;52.016;8.714;2023-02-12T09:57:50;149.33;;;59.37;;
3597;SDS011;1813;52.016;8.714;2023-02-12T10:00:24;165.90;;;59.13;;
3597;SDS011;1813;52.016;8.714;2023-02-12T10:03:02;155.37;;;60.97;;
3597;SDS011;1813;52.016;8.714;2023-02-12T10:05:44;153.37;;;58.97;;
3597;SDS011;1813;52.016;8.714;2023-02-12T10:08:30;152.57;;;59.50;;
3597;SDS011;1813;52.016;8.714;2023-02-12T10:11:19;164.90;;;60.00;;
3597;SDS011;1813;52.016;8.714;2023-02-12T10:14:10;151.67;;;58.80;;
3597;SDS011;1813;52.016;8.714;2023-02-12T10:16:55;164.13;;;60.63;;
3597;SDS011;1813;52.016;8.714;2023-02-12T10:19:47;161.37;;;63.20;;
3597;SDS011;1813;52.016;8.714;2023-02-12T10:22:40;160.27;;;62.30;;
3597;SDS011;1813;52.016;8.714;2023-02-12T10:25:23;156.33;;;60.47;;
3597;SDS011;1813;52.016;8.714;2023-02-12T10:28:04;155.20;;;61.17;;
3597;SDS011;1813;52.016;8.714;2023-02-12T10:30:47;158.70;;;62.53;;
3597;SDS011;1813;52.016;8.714;2023-02-12T10:33:26;154.00;;;61.73;;
3597;SDS011;1813;52.016;8.714;2023-02-12T10:36:06;159.47;;;61.17;;
3597;SDS011;1813;52.016;8.714;2023-02-12T10:38:49;154.67;;;60.03;;
3597;SDS011;1813;52.016;8.714;2023-02-12T10:41:27;150.83;;;59.00;;
3597;SDS011;1813;52.016;8.714;2023-02-12T10:44:03;146.67;;;58.67;;
3597;SDS011;1813;52.016;8.714;2023-02-12T10:46:40;136.97;;;56.90;;
3597;SDS011;1813;52.016;8.714;2023-02-12T10:49:15;129.57;;;52.80;;
3597;SDS011;1813;52.016;8.714;2023-02-12T10:52:02;131.53;;;54.03;;
3597;SDS011;1813;52.016;8.714;2023-02-12T10:54:44;113.93;;;50.27;;
3597;SDS011;1813;52.016;8.714;2023-02-12T10:57:20;103.23;;;45.70;;
3597;SDS011;1813;52.016;8.714;2023-02-12T10:59:56;91.23;;;43.43;;
3597;SDS011;1813;52.016;8.714;2023-02-12T11:03:02;83.33;;;40.00;;
3597;SDS011;1813;52.016;8.714;2023-02-12T11:05:39;69.03;;;36.73;;
3597;SDS011;1813;52.016;8.714;2023-02-12T11:11:06;66.57;;;33.67;;
3597;SDS011;1813;52.016;8.714;2023-02-12T11:13:43;60.53;;;33.17;;
3597;SDS011;1813;52.016;8.714;2023-02-12T11:16:25;62.97;;;31.37;;
3597;SDS011;1813;52.016;8.714;2023-02-12T11:19:05;53.70;;;29.33;;
3597;SDS011;1813;52.016;8.714;2023-02-12T11:21:41;53.73;;;29.30;;
3597;SDS011;1813;52.016;8.714;2023-02-12T11:24:28;55.13;;;30.90;;
3597;SDS011;1813;52.016;8.714;2023-02-12T11:27:23;56.37;;;28.87;;
3597;SDS011;1813;52.016;8.714;2023-02-12T11:30:13;61.23;;;32.73;;
3597;SDS011;1813;52.016;8.714;2023-02-12T11:32:49;53.00;;;31.70;;
3597;SDS011;1813;52.016;8.714;2023-02-12T11:35:35;70.90;;;43.63;;
3597;SDS011;1813;52.016;8.714;2023-02-12T11:38:14;55.87;;;29.50;;
3597;SDS011;1813;52.016;8.714;2023-02-12T11:40:56;46.70;;;25.13;;
3597;SDS011;1813;52.016;8.714;2023-02-12T11:43:35;45.40;;;25.17;;
3597;SDS011;1813;52.016;8.714;2023-02-12T11:46:16;48.10;;;26.63;;
3597;SDS011;1813;52.016;8.714;2023-02-12T11:48:52;54.50;;;29.20;;
3597;SDS011;1813;52.016;8.714;2023-02-12T11:51:33;52.60;;;29.50;;
3597;SDS011;1813;52.016;8.714;2023-02-12T11:54:14;49.40;;;27.30;;
3597;SDS011;1813;52.016;8.714;2023-02-12T11:56:52;50.33;;;27.97;;
3597;SDS011;1813;52.016;8.714;2023-02-12T11:59:32;57.47;;;29.47;;
3597;SDS011;1813;52.016;8.714;2023-02-12T12:02:15;51.63;;;27.80;;
3597;SDS011;1813;52.016;8.714;2023-02-12T12:05:05;50.20;;;27.90;;
3597;SDS011;1813;52.016;8.714;2023-02-12T12:07:53;56.37;;;30.00;;
3597;SDS011;1813;52.016;8.714;2023-02-12T12:10:33;52.83;;;30.13;;
3597;SDS011;1813;52.016;8.714;2023-02-12T12:13:13;56.47;;;30.10;;
3597;SDS011;1813;52.016;8.714;2023-02-12T12:15:54;53.20;;;30.53;;
3597;SDS011;1813;52.016;8.714;2023-02-12T12:18:50;59.43;;;31.23;;
3597;SDS011;1813;52.016;8.714;2023-02-12T12:21:41;49.83;;;26.60;;
3597;SDS011;1813;52.016;8.714;2023-02-12T12:24:24;33.37;;;20.43;;
3597;SDS011;1813;52.016;8.714;2023-02-12T12:27:06;36.93;;;20.57;;
3597;SDS011;1813;52.016;8.714;2023-02-12T12:30:11;32.07;;;19.97;;
3597;SDS011;1813;52.016;8.714;2023-02-12T12:32:53;30.53;;;19.00;;
3597;SDS011;1813;52.016;8.714;2023-02-12T12:35:34;36.50;;;21.57;;
3597;SDS011;1813;52.016;8.714;2023-02-12T12:38:16;31.33;;;19.43;;
3597;SDS011;1813;52.016;8.714;2023-02-12T12:41:02;31.67;;;20.40;;
3597;SDS011;1813;52.016;8.714;2023-02-12T12:43:45;31.23;;;18.63;;
3597;SDS011;1813;52.016;8.714;2023-02-12T12:46:30;27.93;;;16.97;;
3597;SDS011;1813;52.016;8.714;2023-02-12T12:49:22;25.93;;;15.57;;
3597;SDS011;1813;52.016;8.714;2023-02-12T12:52:15;26.93;;;16.40;;
3597;SDS011;1813;52.016;8.714;2023-02-12T12:55:13;27.67;;;17.00;;
3597;SDS011;1813;52.016;8.714;2023-02-12T12:58:00;25.63;;;16.13;;
3597;SDS011;1813;52.016;8.714;2023-02-12T13:03:56;26.30;;;16.37;;
3597;SDS011;1813;52.016;8.714;2023-02-12T13:06:55;24.80;;;16.30;;
3597;SDS011;1813;52.016;8.714;2023-02-12T13:09:44;28.43;;;17.60;;
3597;SDS011;1813;52.016;8.714;2023-02-12T13:12:29;25.77;;;17.27;;
3597;SDS011;1813;52.016;8.714;2023-02-12T13:15:12;29.03;;;17.80;;
3597;SDS011;1813;52.016;8.714;2023-02-12T13:17:56;28.10;;;17.47;;
3597;SDS011;1813;52.016;8.714;2023-02-12T13:20:38;31.87;;;19.73;;
3597;SDS011;1813;52.016;8.714;2023-02-12T13:23:21;30.20;;;18.87;;
3597;SDS011;1813;52.016;8.714;2023-02-12T13:26:03;30.43;;;18.07;;
3597;SDS011;1813;52.016;8.714;2023-02-12T13:28:47;33.30;;;20.33;;
3597;SDS011;1813;52.016;8.714;2023-02-12T13:31:27;31.80;;;20.30;;
3597;SDS011;1813;52.016;8.714;2023-02-12T13:34:04;30.67;;;19.17;;
3597;SDS011;1813;52.016;8.714;2023-02-12T13:36:45;29.73;;;19.10;;
3597;SDS011;1813;52.016;8.714;2023-02-12T13:39:22;26.57;;;16.90;;
3597;SDS011;1813;52.016;8.714;2023-02-12T13:42:03;25.50;;;15.70;;
3597;SDS011;1813;52.016;8.714;2023-02-12T13:44:46;22.73;;;14.80;;
3597;SDS011;1813;52.016;8.714;2023-02-12T13:47:36;19.73;;;13.30;;
3597;SDS011;1813;52.016;8.714;2023-02-12T13:50:21;18.63;;;13.07;;
3597;SDS011;1813;52.016;8.714;2023-02-12T13:53:06;21.77;;;13.43;;
3597;SDS011;1813;52.016;8.714;2023-02-12T13:55:55;15.30;;;11.80;;
3597;SDS011;1813;52.016;8.714;2023-02-12T14:01:33;19.63;;;12.43;;
3597;SDS011;1813;52.016;8.714;2023-02-12T14:07:05;20.93;;;13.30;;
3597;SDS011;1813;52.016;8.714;2023-02-12T14:09:43;18.23;;;12.20;;
3597;SDS011;1813;52.016;8.714;2023-02-12T14:12:32;18.93;;;12.57;;
3597;SDS011;1813;52.016;8.714;2023-02-12T14:15:10;18.60;;;13.53;;
3597;SDS011;1813;52.016;8.714;2023-02-12T14:18:04;18.40;;;12.07;;
3597;SDS011;1813;52.016;8.714;2023-02-12T14:27:29;19.13;;;12.00;;
3597;SDS011;1813;52.016;8.714;2023-02-12T14:30:25;16.53;;;10.90;;
3597;SDS011;1813;52.016;8.714;2023-02-12T14:33:23;17.33;;;10.57;;
3597;SDS011;1813;52.016;8.714;2023-02-12T14:36:12;11.93;;;8.63;;
3597;SDS011;1813;52.016;8.714;2023-02-12T14:38:57;11.70;;;8.60;;
3597;SDS011;1813;52.016;8.714;2023-02-12T14:41:36;17.10;;;8.87;;
3597;SDS011;1813;52.016;8.714;2023-02-12T14:50:34;12.07;;;8.60;;
3597;SDS011;1813;52.016;8.714;2023-02-12T14:53:24;11.63;;;8.00;;
3597;SDS011;1813;52.016;8.714;2023-02-12T14:56:07;11.00;;;8.83;;
3597;SDS011;1813;52.016;8.714;2023-02-12T14:58:43;15.20;;;9.97;;
3597;SDS011;1813;52.016;8.714;2023-02-12T15:01:29;12.57;;;8.00;;
3597;SDS011;1813;52.016;8.714;2023-02-12T15:04:09;11.03;;;7.60;;
3597;SDS011;1813;52.016;8.714;2023-02-12T15:06:50;10.27;;;7.50;;
3597;SDS011;1813;52.016;8.714;2023-02-12T15:09:29;9.90;;;7.40;;
3597;SDS011;1813;52.016;8.714;2023-02-12T15:12:10;12.30;;;7.93;;
3597;SDS011;1813;52.016;8.714;2023-02-12T15:14:50;10.20;;;7.57;;
3597;SDS011;1813;52.016;8.714;2023-02-12T15:17:31;8.63;;;6.80;;
3597;SDS011;1813;52.016;8.714;2023-02-12T15:20:12;11.57;;;8.33;;
3597;SDS011;1813;52.016;8.714;2023-02-12T15:22:55;11.50;;;7.80;;
3597;SDS011;1813;52.016;8.714;2023-02-12T15:25:29;10.43;;;7.87;;
3597;SDS011;1813;52.016;8.714;2023-02-12T15:28:20;11.07;;;7.83;;
3597;SDS011;1813;52.016;8.714;2023-02-12T15:31:03;9.73;;;7.30;;
3597;SDS011;1813;52.016;8.714;2023-02-12T15:33:47;11.30;;;8.00;;
3597;SDS011;1813;52.016;8.714;2023-02-12T15:36:23;10.70;;;6.90;;
3597;SDS011;1813;52.016;8.714;2023-02-12T15:39:03;8.47;;;7.07;;
3597;SDS011;1813;52.016;8.714;2023-02-12T15:41:40;9.43;;;7.03;;
3597;SDS011;1813;52.016;8.714;2023-02-12T15:44:19;9.83;;;7.53;;
3597;SDS011;1813;52.016;8.714;2023-02-12T15:47:09;10.77;;;7.77;;
3597;SDS011;1813;52.016;8.714;2023-02-12T15:49:48;10.20;;;7.57;;
3597;SDS011;1813;52.016;8.714;2023-02-12T15:52:30;10.73;;;7.60;;
3597;SDS011;1813;52.016;8.714;2023-02-12T15:55:11;10.80;;;7.97;;
3597;SDS011;1813;52.016;8.714;2023-02-12T15:57:48;11.50;;;7.60;;
3597;SDS011;1813;52.016;8.714;2023-02-12T16:00:27;10.57;;;8.10;;
3597;SDS011;1813;52.016;8.714;2023-02-12T16:03:19;12.37;;;9.10;;
3597;SDS011;1813;52.016;8.714;2023-02-12T16:06:09;12.03;;;8.70;;
3597;SDS011;1813;52.016;8.714;2023-02-12T16:08:46;9.70;;;7.80;;
3597;SDS011;1813;52.016;8.714;2023-02-12T16:14:23;9.90;;;7.77;;
3597;SDS011;1813;52.016;8.714;2023-02-12T16:17:00;10.63;;;8.17;;
3597;SDS011;1813;52.016;8.714;2023-02-12T16:19:35;10.43;;;8.50;;
3597;SDS011;1813;52.016;8.714;2023-02-12T16:22:14;10.83;;;8.50;;
3597;SDS011;1813;52.016;8.714;2023-02-12T16:24:52;12.60;;;9.73;;
3597;SDS011;1813;52.016;8.714;2023-02-12T16:27:29;13.33;;;9.37;;
3597;SDS011;1813;52.016;8.714;2023-02-12T16:30:05;12.93;;;9.10;;
3597;SDS011;1813;52.016;8.714;2023-02-12T16:32:55;11.37;;;8.57;;
3597;SDS011;1813;52.016;8.714;2023-02-12T16:35:30;11.73;;;8.50;;